Terminal Aerodrome Forecast
Issued by NWS

Home | Current Version | Previous Version | Text Only | Print | Product List | Glossary On
Versions: 1 2 3 4 5 6 7 8 9 10 11 12 13 14 15 16 17 18 19
000
FTUS41 KOKX 221100
TAFSWF
TAF
KSWF 221130Z 2212/2318 VRB03KT P6SM FEW250
     FM221400 26006KT P6SM FEW100
     FM221900 23009KT P6SM VCSH SCT040 SCT100
     FM222300 22007KT P6SM BKN070
     FM230200 VRB02KT P6SM FEW070
      TEMPO 2309/2312 5SM BR
     FM231400 22010KT P6SM FEW030
      AMD NOT SKED=

USA.gov is the U.S. government's official web portal to all federal, state and local government web resources and services.